createdAt,value
2018-04-29T00:00:11.901Z,99.90
2018-04-29T00:02:39.397Z,99.90
2018-04-29T00:05:06.921Z,99.90
2018-04-29T00:07:35.145Z,99.90
2018-04-29T00:10:02.651Z,99.90
2018-04-29T00:12:30.094Z,99.90
2018-04-29T00:14:57.547Z,99.90
2018-04-29T00:17:25.843Z,99.90
2018-04-29T00:19:54.272Z,99.90
2018-04-29T00:22:21.747Z,99.90
2018-04-29T00:24:49.308Z,99.90
2018-04-29T00:27:16.851Z,99.90
2018-04-29T00:29:46.145Z,99.90
2018-04-29T00:32:14.134Z,99.90
2018-04-29T00:34:42.435Z,99.90
2018-04-29T00:37:10.555Z,99.90
2018-04-29T00:39:39.059Z,99.90
2018-04-29T00:42:06.744Z,99.90
2018-04-29T00:44:34.279Z,99.90
2018-04-29T00:47:02.586Z,99.90
2018-04-29T00:49:30.107Z,99.90
2018-04-29T00:52:12.107Z,99.90
2018-04-29T00:54:45.291Z,99.90
2018-04-29T00:57:13.869Z,99.90
2018-04-29T00:59:41.427Z,99.90
2018-04-29T01:02:09.850Z,99.90
2018-04-29T01:04:38.235Z,99.90
2018-04-29T01:07:09.572Z,99.90
2018-04-29T01:09:37.109Z,99.90
2018-04-29T01:12:05.116Z,99.90
2018-04-29T01:14:33.164Z,99.90
2018-04-29T01:17:04.587Z,99.90
2018-04-29T01:19:32.084Z,99.90
2018-04-29T01:22:00.541Z,99.90
2018-04-29T01:24:28.042Z,99.90
2018-04-29T01:26:59.288Z,99.90
2018-04-29T01:29:30.983Z,99.90
2018-04-29T01:31:58.486Z,99.90
2018-04-29T01:34:30.117Z,99.90
2018-04-29T01:36:57.632Z,99.90
2018-04-29T01:39:25.943Z,99.90
2018-04-29T01:41:53.502Z,99.90
2018-04-29T01:44:22.305Z,99.90
2018-04-29T01:46:49.767Z,99.90
2018-04-29T01:49:18.481Z,99.90
2018-04-29T01:51:45.963Z,99.90
2018-04-29T01:54:14.823Z,99.90
2018-04-29T01:56:47.967Z,99.90
2018-04-29T01:59:15.590Z,99.90
2018-04-29T02:01:43.047Z,99.90
2018-04-29T02:04:10.564Z,99.90
2018-04-29T02:06:38.060Z,99.90
2018-04-29T02:09:05.521Z,99.90
2018-04-29T02:11:33.022Z,99.90
2018-04-29T02:14:00.975Z,99.90
2018-04-29T02:16:28.445Z,99.90
2018-04-29T02:18:55.978Z,99.90
2018-04-29T02:21:23.518Z,99.90
2018-04-29T02:23:51.025Z,99.90
2018-04-29T02:26:19.271Z,99.90
2018-04-29T02:28:51.601Z,99.90
2018-04-29T02:31:19.985Z,99.90
2018-04-29T02:33:48.282Z,99.90
2018-04-29T02:36:16.555Z,99.90
2018-04-29T02:38:44.021Z,99.90
2018-04-29T02:41:11.499Z,99.90
2018-04-29T02:43:39.002Z,99.90
2018-04-29T02:46:10.691Z,99.90
2018-04-29T02:48:38.290Z,99.90
2018-04-29T02:51:06.528Z,99.90
2018-04-29T02:53:34.060Z,99.90
2018-04-29T02:56:01.549Z,99.90
2018-04-29T02:58:29.099Z,99.90
2018-04-29T03:00:56.602Z,99.90
2018-04-29T03:03:29.238Z,99.90
2018-04-29T03:05:56.769Z,99.90
2018-04-29T03:08:24.303Z,99.90
2018-04-29T03:10:52.725Z,99.90
2018-04-29T03:13:25.318Z,99.90
2018-04-29T03:15:57.679Z,99.90
2018-04-29T03:18:25.715Z,99.90
2018-04-29T03:20:53.213Z,99.90
2018-04-29T03:23:20.675Z,99.90
2018-04-29T03:25:48.649Z,99.90
2018-04-29T03:28:17.847Z,99.90
2018-04-29T03:30:47.014Z,99.90
2018-04-29T03:33:14.515Z,99.90
2018-04-29T03:35:42.799Z,99.90
2018-04-29T03:38:10.338Z,99.90
2018-04-29T03:40:37.789Z,99.90
2018-04-29T03:43:05.433Z,99.90
2018-04-29T03:45:34.620Z,99.90
2018-04-29T03:48:06.259Z,99.90
2018-04-29T03:50:33.839Z,99.90
2018-04-29T03:53:13.596Z,99.90
2018-04-29T03:55:41.466Z,99.90
2018-04-29T03:58:20.817Z,99.90
2018-04-29T04:01:00.240Z,99.90
2018-04-29T04:03:40.427Z,99.90
2018-04-29T04:06:07.904Z,99.90
2018-04-29T04:08:35.393Z,99.90
2018-04-29T04:11:02.868Z,99.90
2018-04-29T04:13:30.335Z,99.90
2018-04-29T04:15:57.883Z,99.90
2018-04-29T04:18:26.152Z,99.90
2018-04-29T04:20:53.718Z,99.90
2018-04-29T04:23:21.173Z,99.90
2018-04-29T04:25:48.673Z,99.90
2018-04-29T04:28:16.165Z,99.90
2018-04-29T04:30:44.400Z,99.90
2018-04-29T04:33:11.880Z,99.90
2018-04-29T04:35:39.354Z,99.90
2018-04-29T04:38:06.876Z,99.90
2018-04-29T04:40:34.345Z,99.90
2018-04-29T04:43:01.807Z,99.90
2018-04-29T04:45:29.277Z,99.90
2018-04-29T04:47:56.802Z,99.90
2018-04-29T04:50:24.275Z,99.90
2018-04-29T04:52:52.495Z,99.90
2018-04-29T04:55:19.955Z,99.90
2018-04-29T04:57:47.422Z,99.90
2018-04-29T05:00:14.879Z,99.90
2018-04-29T05:02:43.117Z,99.90
2018-04-29T05:05:10.574Z,99.90
2018-04-29T05:07:38.058Z,99.90
2018-04-29T05:10:05.504Z,99.90
2018-04-29T05:12:33.741Z,99.90
2018-04-29T05:15:01.186Z,99.90
2018-04-29T05:17:28.810Z,99.90
2018-04-29T05:19:56.277Z,99.90
2018-04-29T05:22:23.758Z,99.90
2018-04-29T05:24:51.216Z,99.90
2018-04-29T05:27:18.731Z,99.90
2018-04-29T05:29:46.208Z,99.90
2018-04-29T05:32:13.707Z,99.90
2018-04-29T05:34:41.265Z,99.90
2018-04-29T05:37:08.762Z,99.90
2018-04-29T05:39:36.231Z,99.90
2018-04-29T05:42:04.494Z,99.90
2018-04-29T05:44:31.990Z,99.90
2018-04-29T05:46:59.456Z,99.90
2018-04-29T05:49:26.933Z,99.90
2018-04-29T05:51:54.919Z,99.90
2018-04-29T05:54:22.395Z,99.90
2018-04-29T05:56:49.987Z,99.90
2018-04-29T05:59:17.548Z,99.90
2018-04-29T06:01:45.010Z,99.90
2018-04-29T06:04:12.646Z,99.90
2018-04-29T06:06:40.214Z,99.90
2018-04-29T06:09:07.647Z,99.90
2018-04-29T06:11:35.149Z,99.90
2018-04-29T06:14:03.445Z,99.90
2018-04-29T06:16:30.862Z,99.90
2018-04-29T06:18:58.344Z,99.90
2018-04-29T06:21:25.792Z,99.90
2018-04-29T06:23:53.394Z,99.90
2018-04-29T06:26:20.854Z,99.90
2018-04-29T06:28:48.357Z,99.90
2018-04-29T06:31:15.844Z,99.90
2018-04-29T06:33:43.336Z,99.90
2018-04-29T06:36:11.555Z,99.90
2018-04-29T06:38:39.030Z,99.90
2018-04-29T06:41:06.518Z,99.90
2018-04-29T06:43:33.981Z,99.90
2018-04-29T06:46:01.961Z,99.90
2018-04-29T06:48:29.438Z,99.90
2018-04-29T06:50:58.547Z,99.90
2018-04-29T06:53:26.027Z,99.90
2018-04-29T06:55:53.483Z,99.90
2018-04-29T06:58:20.957Z,99.90
2018-04-29T07:00:49.284Z,99.90
2018-04-29T07:03:16.655Z,99.90
2018-04-29T07:05:44.111Z,99.90
2018-04-29T07:08:12.356Z,99.90
2018-04-29T07:10:39.778Z,99.90
2018-04-29T07:13:07.339Z,99.90
2018-04-29T07:15:35.585Z,99.90
2018-04-29T07:18:03.060Z,99.90
2018-04-29T07:20:30.519Z,99.00
2018-04-29T07:22:57.993Z,96.70
2018-04-29T07:25:25.438Z,95.70
2018-04-29T07:27:53.744Z,95.00
2018-04-29T07:30:21.228Z,95.00
2018-04-29T07:32:48.695Z,96.40
2018-04-29T07:35:16.151Z,99.00
2018-04-29T07:37:44.403Z,99.90
2018-04-29T07:40:11.952Z,99.90
2018-04-29T07:42:42.182Z,99.90
2018-04-29T07:45:10.409Z,99.90
2018-04-29T07:47:38.627Z,99.90
2018-04-29T07:50:06.087Z,99.90
2018-04-29T07:52:33.579Z,99.90
2018-04-29T07:55:01.043Z,99.90
2018-04-29T07:57:28.544Z,99.90
2018-04-29T07:59:56.787Z,99.90
2018-04-29T08:02:24.239Z,99.90
2018-04-29T08:04:51.724Z,99.90
2018-04-29T08:07:19.188Z,99.90
2018-04-29T08:09:46.664Z,99.90
2018-04-29T08:12:14.145Z,99.90
2018-04-29T08:14:41.679Z,99.90
2018-04-29T08:17:09.134Z,99.90
2018-04-29T08:19:37.623Z,99.90
2018-04-29T08:22:05.082Z,99.90
2018-04-29T08:24:32.568Z,99.90
2018-04-29T08:27:00.054Z,99.90
2018-04-29T08:29:27.515Z,99.90
2018-04-29T08:31:55.531Z,99.90
2018-04-29T08:34:23.019Z,99.90
2018-04-29T08:36:50.535Z,99.90
2018-04-29T08:39:18.728Z,99.90
2018-04-29T08:41:46.316Z,99.90
2018-04-29T08:44:13.701Z,99.90
2018-04-29T08:46:41.251Z,99.90
2018-04-29T08:49:08.745Z,99.90
2018-04-29T08:51:36.211Z,99.90
2018-04-29T08:54:03.656Z,99.90
2018-04-29T08:56:31.926Z,99.90
2018-04-29T08:58:59.528Z,99.90
2018-04-29T09:01:27.764Z,99.90
2018-04-29T09:03:57.065Z,99.90
2018-04-29T09:06:25.224Z,99.90
2018-04-29T09:08:53.441Z,99.90
2018-04-29T09:11:21.898Z,99.90
2018-04-29T09:13:49.366Z,99.90
2018-04-29T09:16:16.825Z,99.90
2018-04-29T09:18:44.311Z,99.90
2018-04-29T09:21:11.773Z,99.90
2018-04-29T09:23:39.238Z,99.90
2018-04-29T09:26:07.534Z,99.90
2018-04-29T09:28:35.009Z,99.90
2018-04-29T09:31:02.462Z,99.90
2018-04-29T09:33:29.979Z,99.90
2018-04-29T09:35:57.447Z,99.90
2018-04-29T09:38:24.927Z,99.90
2018-04-29T09:41:02.129Z,99.90
2018-04-29T09:43:36.299Z,99.90
2018-04-29T09:46:04.662Z,99.90
2018-04-29T09:48:32.473Z,99.90
2018-04-29T09:51:00.503Z,99.90
2018-04-29T09:53:29.944Z,99.90
2018-04-29T09:56:07.346Z,99.90
2018-04-29T09:58:36.750Z,99.90
2018-04-29T10:04:15.302Z,99.90
2018-04-29T10:06:42.809Z,99.90
2018-04-29T10:09:10.278Z,99.90
2018-04-29T10:11:37.734Z,99.90
2018-04-29T10:14:05.243Z,99.90
2018-04-29T10:16:32.693Z,99.90
2018-04-29T10:19:00.134Z,99.90
2018-04-29T10:21:27.612Z,99.90
2018-04-29T10:23:55.064Z,99.90
2018-04-29T10:26:22.543Z,99.90
2018-04-29T10:28:49.999Z,99.70
2018-04-29T10:31:18.385Z,96.80
2018-04-29T10:33:45.840Z,96.80
2018-04-29T10:36:13.298Z,95.60
2018-04-29T10:38:40.777Z,95.60
2018-04-29T10:41:08.305Z,95.90
2018-04-29T10:43:35.692Z,95.70
2018-04-29T10:46:03.165Z,97.20
2018-04-29T10:48:30.616Z,97.60
2018-04-29T10:50:58.850Z,99.90
2018-04-29T10:53:26.292Z,99.90
2018-04-29T10:55:54.536Z,99.40
2018-04-29T10:58:22.077Z,99.40
2018-04-29T11:00:49.534Z,98.50
2018-04-29T11:03:17.785Z,97.70
2018-04-29T11:05:45.234Z,97.60
2018-04-29T11:08:12.713Z,98.50
2018-04-29T11:10:40.176Z,97.80
2018-04-29T11:13:07.729Z,96.90
2018-04-29T11:15:35.924Z,96.50
2018-04-29T11:18:04.177Z,96.70
2018-04-29T11:20:31.636Z,96.70
2018-04-29T11:22:59.109Z,96.00
2018-04-29T11:25:26.576Z,94.90
2018-04-29T11:27:55.083Z,95.40
2018-04-29T11:30:22.531Z,94.60
2018-04-29T11:32:50.026Z,94.90
2018-04-29T11:35:17.473Z,94.50
2018-04-29T11:37:45.708Z,94.40
2018-04-29T11:40:13.163Z,94.40
2018-04-29T11:42:40.662Z,93.60
2018-04-29T11:45:08.131Z,94.60
2018-04-29T11:47:35.577Z,94.00
2018-04-29T11:50:03.146Z,93.60
2018-04-29T11:52:31.360Z,93.80
2018-04-29T11:54:58.878Z,93.80
2018-04-29T11:57:26.332Z,93.90
2018-04-29T11:59:54.459Z,93.50
2018-04-29T12:02:21.912Z,93.30
2018-04-29T12:04:49.400Z,92.50
2018-04-29T12:07:16.847Z,92.50
2018-04-29T12:09:44.317Z,91.80
2018-04-29T12:12:11.821Z,92.00
2018-04-29T12:14:39.487Z,91.80
2018-04-29T12:17:06.938Z,92.50
2018-04-29T12:19:34.415Z,91.90
2018-04-29T12:22:01.878Z,91.40
2018-04-29T12:24:29.450Z,91.10
2018-04-29T12:26:56.827Z,90.60
2018-04-29T12:29:24.322Z,90.30
2018-04-29T12:31:51.759Z,90.40
2018-04-29T12:34:19.216Z,90.20
2018-04-29T12:36:47.529Z,88.90
2018-04-29T12:39:15.730Z,89.70
2018-04-29T12:41:43.222Z,89.70
2018-04-29T12:44:10.678Z,88.90
2018-04-29T12:46:38.268Z,89.70
2018-04-29T12:49:05.657Z,89.10
2018-04-29T12:51:33.171Z,88.00
2018-04-29T12:54:00.617Z,86.30
2018-04-29T12:56:28.103Z,85.20
2018-04-29T12:58:55.540Z,84.30
2018-04-29T13:01:22.998Z,84.30
2018-04-29T13:03:50.450Z,83.90
2018-04-29T13:06:17.927Z,83.40
2018-04-29T13:08:46.159Z,82.80
2018-04-29T13:11:13.636Z,82.80
2018-04-29T13:13:41.077Z,83.40
2018-04-29T13:16:09.315Z,79.40
2018-04-29T13:18:36.786Z,79.40
2018-04-29T13:21:04.239Z,79.90
2018-04-29T13:23:31.706Z,80.00
2018-04-29T13:25:59.176Z,79.70
2018-04-29T13:28:26.657Z,81.50
2018-04-29T13:30:54.861Z,78.30
2018-04-29T13:33:22.353Z,78.20
2018-04-29T13:35:49.932Z,76.90
2018-04-29T13:38:17.290Z,77.50
2018-04-29T13:40:44.747Z,77.10
2018-04-29T13:43:12.952Z,76.70
2018-04-29T13:45:40.423Z,76.70
2018-04-29T13:48:07.882Z,75.70
2018-04-29T13:50:35.389Z,75.60
2018-04-29T13:53:02.814Z,77.60
2018-04-29T13:55:30.521Z,78.30
2018-04-29T13:57:58.003Z,77.30
2018-04-29T14:00:26.229Z,76.10
2018-04-29T14:02:53.691Z,76.00
2018-04-29T14:05:21.195Z,75.10
2018-04-29T14:07:48.650Z,73.80
2018-04-29T14:10:16.179Z,73.90
2018-04-29T14:12:43.564Z,71.50
2018-04-29T14:15:11.047Z,71.90
2018-04-29T14:17:38.514Z,71.90
2018-04-29T14:20:06.016Z,71.60
2018-04-29T14:22:33.469Z,72.20
2018-04-29T14:25:00.914Z,72.80
2018-04-29T14:27:29.129Z,70.80
2018-04-29T14:29:56.648Z,70.80
2018-04-29T14:32:24.102Z,69.70
2018-04-29T14:34:51.571Z,69.00
2018-04-29T14:37:19.059Z,68.90
2018-04-29T14:39:46.524Z,68.60
2018-04-29T14:42:13.991Z,70.00
2018-04-29T14:44:41.445Z,70.20
2018-04-29T14:47:09.672Z,70.70
2018-04-29T14:49:37.262Z,70.70
2018-04-29T14:52:05.425Z,67.20
2018-04-29T14:54:32.921Z,67.10
2018-04-29T14:57:00.386Z,70.10
2018-04-29T14:59:27.845Z,71.20
2018-04-29T15:01:56.069Z,74.40
2018-04-29T15:04:23.549Z,74.30
2018-04-29T15:06:50.971Z,75.00
2018-04-29T15:09:19.204Z,73.40
2018-04-29T15:11:46.675Z,73.30
2018-04-29T15:14:14.159Z,73.30
2018-04-29T15:16:41.713Z,72.50
2018-04-29T15:19:09.935Z,74.00
2018-04-29T15:21:37.386Z,74.00
2018-04-29T15:24:04.872Z,72.40
2018-04-29T15:26:32.317Z,72.50
2018-04-29T15:28:59.801Z,73.00
2018-04-29T15:31:27.994Z,74.20
2018-04-29T15:33:55.499Z,74.20
2018-04-29T15:36:22.968Z,74.70
2018-04-29T15:38:50.475Z,75.90
2018-04-29T15:41:17.927Z,76.10
2018-04-29T15:43:45.402Z,75.10
2018-04-29T15:46:12.850Z,75.00
2018-04-29T15:48:40.323Z,76.00
2018-04-29T15:51:07.790Z,75.00
2018-04-29T15:53:35.237Z,75.50
2018-04-29T15:56:02.816Z,76.50
2018-04-29T15:58:30.272Z,77.10
2018-04-29T16:00:57.747Z,77.20
2018-04-29T16:03:25.213Z,77.00
2018-04-29T16:05:52.668Z,77.20
2018-04-29T16:08:20.134Z,77.50
2018-04-29T16:10:47.667Z,78.60
2018-04-29T16:13:15.122Z,79.40
2018-04-29T16:15:42.604Z,79.80
2018-04-29T16:18:10.128Z,79.70
2018-04-29T16:20:37.615Z,80.10
2018-04-29T16:23:05.164Z,80.40
2018-04-29T16:25:33.384Z,80.80
2018-04-29T16:28:00.866Z,80.80
2018-04-29T16:30:28.347Z,81.20
2018-04-29T16:32:55.807Z,81.60
2018-04-29T16:35:23.254Z,82.20
2018-04-29T16:37:51.530Z,81.80
2018-04-29T16:40:18.981Z,81.80
2018-04-29T16:42:46.448Z,82.20
2018-04-29T16:45:13.931Z,82.10
2018-04-29T16:47:41.390Z,82.40
2018-04-29T16:50:08.844Z,82.20
2018-04-29T16:52:36.313Z,82.80
2018-04-29T16:55:03.783Z,82.80
2018-04-29T16:57:31.994Z,83.00
2018-04-29T16:59:59.560Z,83.00
2018-04-29T17:02:27.794Z,83.40
2018-04-29T17:04:55.279Z,83.40
2018-04-29T17:07:22.742Z,83.60
2018-04-29T17:09:50.692Z,83.80
2018-04-29T17:12:19.433Z,83.50
2018-04-29T17:14:47.565Z,83.60
2018-04-29T17:17:16.018Z,83.60
2018-04-29T17:19:43.554Z,84.20
2018-04-29T17:22:10.950Z,84.70
2018-04-29T17:24:38.462Z,85.00
2018-04-29T17:27:05.926Z,85.30
2018-04-29T17:29:34.262Z,85.30
2018-04-29T17:32:02.558Z,85.70
2018-04-29T17:34:30.082Z,85.80
2018-04-29T17:36:57.530Z,85.40
2018-04-29T17:39:25.020Z,85.90
2018-04-29T17:41:52.500Z,85.90
2018-04-29T17:44:20.023Z,86.00
2018-04-29T17:46:48.262Z,86.10
2018-04-29T17:49:15.737Z,86.70
2018-04-29T17:51:43.250Z,86.80
2018-04-29T17:54:10.726Z,86.80
2018-04-29T17:56:39.068Z,87.40
2018-04-29T17:59:07.361Z,87.90
2018-04-29T18:01:35.606Z,88.50
2018-04-29T18:04:03.039Z,88.50
2018-04-29T18:06:30.530Z,89.10
2018-04-29T18:08:57.987Z,89.60
2018-04-29T18:11:25.459Z,90.10
2018-04-29T18:13:52.977Z,90.30
2018-04-29T18:16:20.575Z,90.60
2018-04-29T18:18:48.032Z,90.70
2018-04-29T18:21:15.582Z,91.00
2018-04-29T18:23:42.973Z,91.20
2018-04-29T18:26:10.443Z,91.40
2018-04-29T18:28:37.932Z,91.70
2018-04-29T18:31:05.463Z,92.40
2018-04-29T18:33:33.692Z,92.60
2018-04-29T18:36:01.943Z,93.00
2018-04-29T18:38:30.609Z,93.40
2018-04-29T18:40:58.078Z,93.40
2018-04-29T18:43:25.975Z,93.60
2018-04-29T18:45:53.675Z,93.70
2018-04-29T18:48:21.970Z,94.30
2018-04-29T18:50:49.543Z,94.30
2018-04-29T18:53:17.698Z,94.80
2018-04-29T18:55:45.921Z,94.70
2018-04-29T18:58:14.163Z,95.10
2018-04-29T19:00:41.617Z,95.10
2018-04-29T19:03:09.135Z,95.30
2018-04-29T19:05:46.340Z,95.60
2018-04-29T19:08:13.810Z,96.00
2018-04-29T19:10:41.268Z,96.20
2018-04-29T19:13:08.758Z,96.50
2018-04-29T19:15:36.215Z,96.80
2018-04-29T19:18:03.682Z,97.10
2018-04-29T19:20:31.162Z,97.30
2018-04-29T19:22:58.630Z,97.50
2018-04-29T19:25:26.158Z,97.80
2018-04-29T19:27:53.684Z,98.00
2018-04-29T19:30:21.265Z,98.10
2018-04-29T19:32:48.743Z,98.20
2018-04-29T19:35:16.214Z,98.60
2018-04-29T19:37:44.068Z,98.90
2018-04-29T19:40:12.343Z,99.40
2018-04-29T19:42:40.621Z,99.60
2018-04-29T19:45:08.107Z,99.60
2018-04-29T19:47:36.351Z,99.90
2018-04-29T19:50:03.854Z,99.90
2018-04-29T19:52:31.334Z,99.90
2018-04-29T19:54:58.971Z,99.90
2018-04-29T19:57:26.433Z,99.90
2018-04-29T19:59:54.657Z,99.90
2018-04-29T20:02:22.124Z,99.90
2018-04-29T20:04:49.642Z,99.90
2018-04-29T20:07:17.097Z,99.90
2018-04-29T20:09:45.334Z,99.90
2018-04-29T20:12:13.536Z,99.90
2018-04-29T20:14:41.043Z,99.90
2018-04-29T20:17:08.483Z,99.90
2018-04-29T20:19:35.953Z,99.90
2018-04-29T20:22:04.188Z,99.90
2018-04-29T20:24:31.664Z,99.90
2018-04-29T20:26:59.160Z,99.90
2018-04-29T20:29:26.604Z,99.90
2018-04-29T20:31:54.075Z,99.90
2018-04-29T20:34:21.549Z,99.90
2018-04-29T20:36:49.045Z,99.90
2018-04-29T20:39:16.542Z,99.90
2018-04-29T20:41:44.063Z,99.90
2018-04-29T20:44:11.596Z,99.90
2018-04-29T20:46:39.081Z,99.90
2018-04-29T20:49:06.529Z,99.90
2018-04-29T20:51:34.023Z,99.90
2018-04-29T20:54:01.490Z,99.90
2018-04-29T20:56:28.984Z,99.90
2018-04-29T20:58:56.435Z,99.90
2018-04-29T21:01:23.973Z,99.90
2018-04-29T21:03:51.471Z,99.90
2018-04-29T21:06:19.127Z,99.90
2018-04-29T21:08:46.862Z,99.90
2018-04-29T21:11:14.417Z,99.90
2018-04-29T21:13:46.628Z,99.90
2018-04-29T21:16:19.490Z,99.90
2018-04-29T21:18:47.136Z,99.90
2018-04-29T21:21:14.623Z,99.90
2018-04-29T21:23:42.173Z,99.90
2018-04-29T21:26:10.854Z,99.90
2018-04-29T21:28:39.153Z,99.90
2018-04-29T21:31:06.752Z,99.90
2018-04-29T21:33:35.048Z,99.90
2018-04-29T21:36:02.696Z,99.90
2018-04-29T21:38:30.175Z,99.90
2018-04-29T21:40:57.721Z,99.90
2018-04-29T21:43:25.235Z,99.90
2018-04-29T21:45:52.758Z,99.90
2018-04-29T21:50:56.847Z,99.90
2018-04-29T21:53:24.441Z,99.90
2018-04-29T22:08:50.894Z,99.90
2018-04-29T22:11:23.240Z,99.90
2018-04-29T22:13:54.437Z,99.90
2018-04-29T22:16:25.611Z,99.90
2018-04-29T22:18:54.122Z,99.90
2018-04-29T22:21:21.607Z,99.90
2018-04-29T22:23:49.027Z,99.90
2018-04-29T22:26:17.282Z,99.90
2018-04-29T22:28:44.789Z,99.90
2018-04-29T22:31:13.051Z,99.90
2018-04-29T22:33:40.511Z,99.90
2018-04-29T22:36:08.013Z,99.90
2018-04-29T22:38:35.499Z,99.90
2018-04-29T22:41:02.985Z,99.90
2018-04-29T22:43:31.236Z,99.90
2018-04-29T22:45:58.721Z,99.90
2018-04-29T22:48:26.200Z,99.90
2018-04-29T22:50:53.710Z,99.90
2018-04-29T22:53:22.022Z,99.90
2018-04-29T22:55:49.507Z,99.90
2018-04-29T22:58:17.030Z,99.90
2018-04-29T23:00:44.485Z,99.90
2018-04-29T23:03:11.941Z,99.90
2018-04-29T23:05:39.399Z,99.90
2018-04-29T23:08:06.860Z,99.90
2018-04-29T23:10:35.074Z,99.90
2018-04-29T23:13:02.545Z,99.90
2018-04-29T23:15:30.001Z,99.90
2018-04-29T23:17:57.573Z,99.90
2018-04-29T23:20:25.803Z,99.90
2018-04-29T23:22:53.278Z,99.90
2018-04-29T23:25:20.719Z,99.90
2018-04-29T23:27:48.941Z,99.90
2018-04-29T23:30:16.399Z,99.90
2018-04-29T23:32:43.850Z,99.90
2018-04-29T23:35:12.073Z,99.90
2018-04-29T23:37:39.551Z,99.90
2018-04-29T23:40:07.123Z,99.90
2018-04-29T23:42:35.335Z,99.90
2018-04-29T23:45:02.812Z,99.90
2018-04-29T23:47:30.262Z,99.90
2018-04-29T23:49:57.755Z,99.00
2018-04-29T23:52:25.277Z,99.10
2018-04-29T23:54:52.767Z,97.70
2018-04-29T23:57:20.250Z,97.00
2018-04-29T23:59:47.739Z,96.80
